Time;durP1;ratioP1;P1;durP2;ratioP2;P2;SDS_P1;SDS_P2;PMS_P1;PMS_P2;Temp;Humidity;BMP_temperature;BMP_pressure;BME280_temperature;BME280_humidity;BME280_pressure;Samples;Min_cycle;Max_cycle;Signal;HPM_P1;HPM_P2
2020/12/21 00:00:18;;;;;;;15.38;10.93;;;7.70;99.90;;;;;;5068638;28;20262;-81
2020/12/21 00:02:46;;;;;;;21.52;10.43;;;7.60;99.90;;;;;;5070177;28;20230;-83
2020/12/21 00:05:13;;;;;;;12.65;8.48;;;7.60;99.90;;;;;;5070278;28;20214;-82
2020/12/21 00:07:40;;;;;;;19.25;12.35;;;7.60;99.90;;;;;;5071120;28;20199;-82
2020/12/21 00:10:08;;;;;;;13.15;8.95;;;7.50;99.90;;;;;;5071675;28;20211;-81
2020/12/21 00:12:35;;;;;;;12.88;9.30;;;7.50;99.90;;;;;;5071502;28;20298;-84
2020/12/21 00:15:04;;;;;;;9.95;7.75;;;7.50;99.90;;;;;;5071059;28;20198;-80
2020/12/21 00:17:31;;;;;;;12.98;7.70;;;7.60;99.90;;;;;;5076526;28;20187;-78
2020/12/21 00:19:57;;;;;;;12.65;7.45;;;7.50;99.90;;;;;;5076971;28;20219;-82
2020/12/21 00:22:24;;;;;;;12.38;8.05;;;7.60;99.90;;;;;;5090382;28;20222;-81
2020/12/21 00:24:50;;;;;;;17.45;7.72;;;7.50;99.90;;;;;;5088025;28;20209;-82
2020/12/21 00:27:17;;;;;;;16.73;8.05;;;7.60;99.90;;;;;;5077866;28;20227;-83
2020/12/21 00:29:44;;;;;;;12.23;8.23;;;7.60;99.90;;;;;;5073471;28;20259;-81
2020/12/21 00:32:11;;;;;;;16.92;7.90;;;7.60;99.90;;;;;;5067871;28;20210;-81
2020/12/21 00:34:37;;;;;;;17.25;7.90;;;7.70;99.90;;;;;;5066283;28;20209;-82
2020/12/21 00:37:06;;;;;;;9.85;7.03;;;7.80;99.90;;;;;;5067577;28;20664;-81
2020/12/21 00:39:32;;;;;;;12.45;6.35;;;7.80;99.90;;;;;;5066725;28;20274;-83
2020/12/21 00:41:59;;;;;;;18.60;7.43;;;7.90;99.90;;;;;;5068423;28;20217;-82
2020/12/21 00:44:26;;;;;;;10.57;5.90;;;8.00;99.90;;;;;;5067467;28;20241;-80
2020/12/21 00:46:53;;;;;;;11.65;6.00;;;8.00;99.90;;;;;;5069078;28;20206;-82
2020/12/21 00:49:19;;;;;;;16.73;7.30;;;8.10;99.90;;;;;;5066632;28;20222;-83
2020/12/21 00:51:46;;;;;;;9.75;5.70;;;8.10;99.90;;;;;;5066737;28;20207;-81
2020/12/21 00:54:12;;;;;;;8.23;5.55;;;8.10;99.90;;;;;;5066575;28;20230;-82
2020/12/21 00:56:39;;;;;;;10.45;6.57;;;8.20;99.90;;;;;;5076212;28;20212;-83
2020/12/21 00:59:06;;;;;;;13.30;6.95;;;8.20;99.90;;;;;;5075070;28;20202;-82
2020/12/21 01:01:34;;;;;;;14.07;6.22;;;8.30;99.90;;;;;;5083550;28;20226;-82
2020/12/21 01:04:02;;;;;;;12.85;6.13;;;8.30;99.90;;;;;;5086547;28;20233;-83
2020/12/21 01:06:29;;;;;;;11.07;5.63;;;8.30;99.90;;;;;;5086438;28;20203;-83
2020/12/21 01:08:56;;;;;;;10.02;5.70;;;8.40;99.90;;;;;;5086872;28;20243;-82
2020/12/21 01:11:23;;;;;;;6.85;5.00;;;8.40;99.90;;;;;;5087685;28;20578;-81
2020/12/21 01:13:50;;;;;;;7.57;4.57;;;8.40;99.90;;;;;;5086536;28;20222;-82
2020/12/21 01:16:20;;;;;;;9.60;5.47;;;8.50;99.90;;;;;;5086701;28;20201;-83
2020/12/21 01:18:47;;;;;;;9.77;5.65;;;8.50;99.90;;;;;;5086396;28;20430;-83
2020/12/21 01:21:22;;;;;;;11.20;5.47;;;8.50;99.90;;;;;;5090018;28;20232;-81
2020/12/21 01:23:49;;;;;;;12.27;5.47;;;8.50;99.90;;;;;;5077215;28;20252;-81
2020/12/21 01:26:16;;;;;;;6.70;4.15;;;8.40;99.90;;;;;;5071994;28;20225;-82
2020/12/21 01:28:43;;;;;;;11.80;5.68;;;8.40;99.90;;;;;;5072958;28;20217;-81
2020/12/21 01:31:09;;;;;;;11.65;5.40;;;8.40;99.90;;;;;;5064496;28;20212;-81
2020/12/21 01:33:36;;;;;;;17.63;6.35;;;8.50;99.90;;;;;;5061304;28;20316;-82
2020/12/21 01:36:03;;;;;;;8.75;6.10;;;8.50;99.90;;;;;;5063863;28;20214;-83
2020/12/21 01:38:31;;;;;;;10.82;6.35;;;8.40;99.90;;;;;;5074485;28;20191;-80
2020/12/21 01:40:57;;;;;;;11.93;4.90;;;8.40;99.90;;;;;;5069690;28;20194;-82
2020/12/21 01:43:24;;;;;;;10.75;5.75;;;8.40;99.90;;;;;;5068805;28;20219;-81
2020/12/21 01:45:51;;;;;;;16.73;4.95;;;8.40;99.90;;;;;;5070456;28;20207;-81
2020/12/21 01:48:17;;;;;;;7.97;5.47;;;8.30;99.90;;;;;;5065574;28;20211;-81
2020/12/21 01:50:44;;;;;;;11.73;5.13;;;8.30;99.90;;;;;;5066178;28;20317;-81
2020/12/21 01:53:11;;;;;;;10.90;6.15;;;8.30;99.90;;;;;;5067802;28;20230;-81
2020/12/21 01:55:39;;;;;;;13.60;5.93;;;8.10;99.90;;;;;;5071836;28;20211;-81
2020/12/21 01:58:06;;;;;;;6.88;4.78;;;8.20;99.90;;;;;;5085516;28;20355;-82
2020/12/21 02:00:33;;;;;;;13.10;7.50;;;8.10;99.90;;;;;;5064751;28;20214;-82
2020/12/21 02:02:59;;;;;;;11.48;5.80;;;8.00;99.90;;;;;;5064985;28;20230;-82
2020/12/21 02:05:26;;;;;;;15.10;7.15;;;8.00;99.90;;;;;;5063446;28;20220;-82
2020/12/21 02:07:53;;;;;;;10.55;7.40;;;7.90;99.90;;;;;;5067300;28;20210;-81
2020/12/21 02:10:22;;;;;;;11.65;6.53;;;7.90;99.90;;;;;;5069652;28;20229;-81
2020/12/21 02:12:48;;;;;;;8.57;5.72;;;7.90;99.90;;;;;;5073987;28;20224;-79
2020/12/21 02:15:15;;;;;;;10.70;6.15;;;7.80;99.90;;;;;;5071626;28;20224;-80
2020/12/21 02:17:41;;;;;;;18.27;6.28;;;7.80;99.90;;;;;;5069826;28;20210;-82
2020/12/21 02:20:08;;;;;;;18.25;6.85;;;7.70;99.90;;;;;;5068865;28;20199;-82
2020/12/21 02:22:35;;;;;;;11.80;6.45;;;7.60;99.90;;;;;;5069316;28;20226;-83
2020/12/21 02:25:02;;;;;;;17.60;9.55;;;7.60;99.90;;;;;;5068407;28;20207;-82
2020/12/21 02:27:28;;;;;;;13.07;6.70;;;7.60;99.90;;;;;;5072543;28;20277;-82
2020/12/21 02:29:55;;;;;;;10.80;6.30;;;7.60;99.90;;;;;;5067226;28;20225;-81
2020/12/21 02:32:21;;;;;;;18.88;9.70;;;7.70;99.90;;;;;;5078362;28;20294;-82
2020/12/21 02:34:48;;;;;;;11.32;5.72;;;7.70;99.90;;;;;;5087808;28;20234;-82
2020/12/21 02:37:14;;;;;;;14.02;6.30;;;7.60;99.90;;;;;;5087960;28;20618;-81
2020/12/21 02:39:42;;;;;;;12.13;7.00;;;7.60;99.90;;;;;;5092282;28;20213;-82
2020/12/21 02:42:09;;;;;;;11.32;6.97;;;7.60;99.90;;;;;;5092991;28;20221;-81
2020/12/21 02:44:36;;;;;;;11.27;6.78;;;7.60;99.90;;;;;;5080896;28;20825;-82
2020/12/21 02:47:02;;;;;;;8.43;5.93;;;7.60;99.90;;;;;;5072530;28;20214;-82
2020/12/21 02:49:29;;;;;;;10.43;6.25;;;7.60;99.90;;;;;;5072264;28;20254;-81
2020/12/21 02:51:55;;;;;;;12.77;6.50;;;7.60;99.90;;;;;;5071535;28;20212;-80
2020/12/21 02:54:21;;;;;;;22.17;7.10;;;7.60;99.90;;;;;;5068902;28;20214;-83
2020/12/21 02:56:52;;;;;;;13.57;6.78;;;7.60;99.90;;;;;;5077136;28;20210;-83
2020/12/21 02:59:19;;;;;;;18.30;9.30;;;7.60;99.90;;;;;;5098980;28;20174;-80
2020/12/21 03:01:46;;;;;;;14.98;8.20;;;7.60;99.90;;;;;;5090094;28;20201;-81
2020/12/21 03:04:12;;;;;;;9.50;6.28;;;7.50;99.90;;;;;;5088682;28;20233;-81
2020/12/21 03:06:39;;;;;;;13.60;8.70;;;7.60;99.90;;;;;;5088480;28;20205;-83
2020/12/21 03:09:06;;;;;;;14.75;7.78;;;7.60;99.90;;;;;;5089596;28;20209;-82
2020/12/21 03:11:32;;;;;;;12.07;6.88;;;7.60;99.90;;;;;;5093217;28;20292;-83
2020/12/21 03:14:00;;;;;;;10.32;6.25;;;7.70;99.90;;;;;;5088077;28;20225;-82
2020/12/21 03:16:26;;;;;;;12.55;7.18;;;7.80;99.90;;;;;;5087684;28;20205;-82
2020/12/21 03:18:53;;;;;;;15.02;9.02;;;7.70;99.90;;;;;;5088034;28;20201;-83
2020/12/21 03:21:19;;;;;;;19.10;10.55;;;7.60;99.90;;;;;;5074023;28;20664;-81
2020/12/21 03:23:46;;;;;;;19.90;8.65;;;7.60;99.90;;;;;;5068688;28;20237;-82
2020/12/21 03:26:12;;;;;;;14.88;8.52;;;7.50;99.90;;;;;;5068509;28;20202;-82
2020/12/21 03:28:39;;;;;;;16.02;9.68;;;7.40;99.90;;;;;;5074883;28;20242;-82
2020/12/21 03:31:06;;;;;;;12.52;7.85;;;7.50;99.90;;;;;;5086945;28;20209;-81
2020/12/21 03:33:33;;;;;;;12.00;8.20;;;7.40;99.90;;;;;;5090579;28;20233;-81
2020/12/21 03:38:27;;;;;;;15.75;8.55;;;7.50;99.90;;;;;;5092202;28;20211;-70
2020/12/21 03:40:54;;;;;;;16.27;9.75;;;7.60;99.90;;;;;;5079258;28;20200;-70
2020/12/21 03:43:20;;;;;;;18.35;9.40;;;7.60;99.90;;;;;;5116230;28;20202;-71
2020/12/21 03:45:49;;;;;;;14.40;9.57;;;7.60;99.90;;;;;;5115749;28;20280;-71
2020/12/21 03:48:16;;;;;;;15.70;10.80;;;7.60;99.90;;;;;;5115724;28;20297;-71
2020/12/21 03:50:43;;;;;;;11.93;9.00;;;7.50;99.90;;;;;;5114011;28;20224;-72
2020/12/21 03:53:10;;;;;;;13.35;8.30;;;7.60;99.90;;;;;;5114913;28;20193;-71
2020/12/21 03:55:36;;;;;;;15.27;8.52;;;7.70;99.90;;;;;;5094742;28;20225;-71
2020/12/21 03:58:03;;;;;;;16.27;8.52;;;7.80;99.90;;;;;;5087696;28;20205;-72
2020/12/21 04:00:30;;;;;;;17.08;9.90;;;7.80;99.90;;;;;;5087022;28;20199;-71
2020/12/21 04:02:56;;;;;;;18.20;9.32;;;7.80;99.90;;;;;;5095579;28;20299;-72
2020/12/21 04:05:24;;;;;;;12.73;9.65;;;7.80;99.90;;;;;;5094865;28;20235;-71
2020/12/21 04:07:50;;;;;;;13.30;8.52;;;7.80;99.90;;;;;;5095516;28;20201;-71
2020/12/21 04:10:17;;;;;;;23.42;11.32;;;7.80;99.90;;;;;;5094555;28;20233;-72
2020/12/21 04:12:46;;;;;;;23.80;11.52;;;7.80;99.90;;;;;;5094950;28;20209;-71
2020/12/21 04:15:13;;;;;;;15.82;11.77;;;7.90;99.90;;;;;;5094658;28;20226;-72
2020/12/21 04:17:39;;;;;;;15.75;11.10;;;7.90;99.90;;;;;;5094751;28;20219;-71
2020/12/21 04:20:06;;;;;;;15.15;10.80;;;7.90;99.90;;;;;;5094164;28;20280;-71
2020/12/21 04:22:33;;;;;;;20.67;11.50;;;7.90;99.90;;;;;;5095088;28;20208;-71
2020/12/21 04:25:00;;;;;;;16.15;10.57;;;7.80;99.90;;;;;;5094477;28;20229;-70
2020/12/21 04:27:27;;;;;;;16.23;10.80;;;7.90;99.90;;;;;;5088186;28;20724;-71
2020/12/21 04:29:53;;;;;;;18.65;10.05;;;7.90;99.90;;;;;;5088019;28;20582;-71
2020/12/21 04:32:20;;;;;;;20.48;10.88;;;7.90;99.90;;;;;;5114924;28;20208;-71
2020/12/21 04:34:46;;;;;;;15.23;9.43;;;7.90;99.90;;;;;;5114651;28;20220;-71
2020/12/21 04:37:13;;;;;;;19.55;10.50;;;7.90;99.90;;;;;;5114882;28;20262;-71
2020/12/21 04:39:40;;;;;;;19.10;10.88;;;7.80;99.90;;;;;;5114085;28;20218;-71
2020/12/21 04:42:07;;;;;;;17.05;11.27;;;7.90;99.90;;;;;;5114579;28;20208;-71
2020/12/21 04:44:41;;;;;;;19.00;10.63;;;7.90;99.90;;;;;;5114397;28;20212;-72
2020/12/21 04:47:09;;;;;;;26.00;11.85;;;8.00;99.90;;;;;;5114388;28;20206;-70
2020/12/21 04:49:37;;;;;;;15.30;9.95;;;8.00;99.90;;;;;;5113945;28;20247;-72
2020/12/21 04:52:06;;;;;;;17.95;10.77;;;8.00;99.90;;;;;;5114118;28;20193;-71
2020/12/21 04:54:33;;;;;;;23.35;10.40;;;8.00;99.90;;;;;;5114353;28;20211;-72
2020/12/21 04:57:00;;;;;;;21.73;10.60;;;8.00;99.90;;;;;;5100270;28;20213;-70
2020/12/21 04:59:27;;;;;;;21.60;10.38;;;8.00;99.90;;;;;;5073079;28;20289;-69
2020/12/21 05:01:55;;;;;;;19.20;10.82;;;8.00;99.90;;;;;;5073773;28;20198;-72
2020/12/21 05:04:22;;;;;;;22.65;12.00;;;8.00;99.90;;;;;;5073950;28;20220;-70
2020/12/21 05:06:50;;;;;;;17.05;8.68;;;8.00;99.90;;;;;;5073539;28;20229;-70
2020/12/21 05:09:17;;;;;;;19.48;10.10;;;8.00;99.90;;;;;;5072798;28;20231;-71
2020/12/21 05:11:53;;;;;;;13.77;10.35;;;8.00;99.90;;;;;;5073374;28;20209;-70
2020/12/21 05:14:31;;;;;;;18.05;11.50;;;8.00;99.90;;;;;;5073322;28;20225;-69
2020/12/21 05:17:08;;;;;;;15.10;9.77;;;7.90;99.90;;;;;;5056345;28;20265;-71
2020/12/21 05:19:35;;;;;;;21.02;10.50;;;7.80;99.90;;;;;;5072726;28;20741;-71
2020/12/21 05:22:01;;;;;;;19.85;10.15;;;7.80;99.90;;;;;;5073454;28;20228;-71
2020/12/21 05:24:28;;;;;;;16.02;9.80;;;7.90;99.90;;;;;;5072976;28;20225;-70
2020/12/21 05:26:54;;;;;;;17.45;9.23;;;7.80;99.90;;;;;;5073489;28;20240;-70
2020/12/21 05:29:27;;;;;;;13.98;10.85;;;7.90;99.90;;;;;;5083361;28;20584;-71
2020/12/21 05:31:53;;;;;;;15.95;10.98;;;7.80;99.90;;;;;;5112711;28;20278;-72
2020/12/21 05:34:27;;;;;;;20.08;9.82;;;7.70;99.90;;;;;;5113356;28;20212;-71
2020/12/21 05:36:54;;;;;;;18.50;11.18;;;7.80;99.90;;;;;;5113257;28;20604;-69
2020/12/21 05:39:20;;;;;;;15.70;9.13;;;7.60;99.90;;;;;;5112421;28;20190;-69
2020/12/21 05:41:47;;;;;;;19.45;10.52;;;7.60;99.90;;;;;;5113395;28;20216;-68
2020/12/21 05:44:13;;;;;;;21.92;10.13;;;7.70;99.90;;;;;;5113383;28;20204;-72
2020/12/21 05:46:41;;;;;;;20.38;11.30;;;7.70;99.90;;;;;;5113327;28;20271;-70
2020/12/21 05:49:08;;;;;;;14.70;10.05;;;7.60;99.90;;;;;;5112828;28;20225;-69
2020/12/21 05:51:37;;;;;;;26.10;11.18;;;7.60;99.90;;;;;;5113423;28;20208;-71
2020/12/21 05:54:05;;;;;;;18.88;11.73;;;7.50;99.90;;;;;;5113474;28;20221;-69
2020/12/21 05:56:33;;;;;;;19.08;11.25;;;7.50;99.90;;;;;;5113781;28;20239;-73
2020/12/21 05:59:00;;;;;;;23.30;11.40;;;7.50;99.90;;;;;;5088426;28;20197;-74
2020/12/21 06:01:27;;;;;;;11.98;9.18;;;7.50;99.90;;;;;;5073481;28;20211;-76
2020/12/21 06:03:59;;;;;;;16.50;9.75;;;7.40;99.90;;;;;;5072997;28;20657;-75
2020/12/21 06:06:28;;;;;;;22.77;10.20;;;7.40;99.90;;;;;;5072560;28;20227;-73
2020/12/21 06:08:57;;;;;;;14.82;10.43;;;7.30;99.90;;;;;;5072090;28;20215;-74
2020/12/21 06:11:25;;;;;;;15.60;9.50;;;7.30;99.90;;;;;;5072247;28;20219;-74
2020/12/21 06:13:56;;;;;;;20.83;11.35;;;7.30;99.90;;;;;;5072218;28;20213;-73
2020/12/21 06:16:24;;;;;;;19.58;13.07;;;7.30;99.90;;;;;;5072414;28;20227;-73
2020/12/21 06:18:59;;;;;;;20.50;10.55;;;7.20;99.90;;;;;;5071322;28;20277;-74
2020/12/21 06:21:27;;;;;;;12.85;9.23;;;7.20;99.90;;;;;;5072865;28;20643;-75
2020/12/21 06:23:56;;;;;;;19.33;10.82;;;7.10;99.90;;;;;;5072462;28;20223;-74
2020/12/21 06:26:35;;;;;;;19.67;10.80;;;7.10;99.90;;;;;;5071592;28;20237;-73
2020/12/21 06:29:05;;;;;;;20.60;11.77;;;7.10;99.90;;;;;;5053961;28;20217;-75
2020/12/21 06:31:43;;;;;;;16.83;9.90;;;7.00;99.90;;;;;;5075527;28;20194;-74
2020/12/21 06:34:13;;;;;;;21.42;11.38;;;7.00;99.90;;;;;;5072414;28;20571;-75
2020/12/21 06:36:40;;;;;;;26.13;13.95;;;7.00;99.90;;;;;;5072355;28;20233;-74
2020/12/21 06:39:07;;;;;;;17.55;12.68;;;7.00;99.90;;;;;;5072354;28;20205;-74
2020/12/21 06:41:35;;;;;;;18.58;10.80;;;7.00;99.90;;;;;;5072666;28;20220;-73
2020/12/21 06:44:03;;;;;;;20.35;11.77;;;6.90;99.90;;;;;;5073317;28;20187;-73
2020/12/21 06:46:30;;;;;;;24.65;11.77;;;7.00;99.90;;;;;;5072277;28;20225;-73
2020/12/21 06:49:12;;;;;;;16.02;10.65;;;7.00;99.90;;;;;;5071776;28;20199;-73
2020/12/21 06:51:44;;;;;;;19.67;12.27;;;7.00;99.90;;;;;;5072361;28;20197;-73
2020/12/21 06:54:12;;;;;;;24.95;12.35;;;6.90;99.90;;;;;;5072271;28;20718;-73
2020/12/21 06:56:39;;;;;;;19.15;11.32;;;6.80;99.90;;;;;;5072039;28;20228;-73
2020/12/21 06:59:11;;;;;;;23.52;14.23;;;6.80;99.90;;;;;;5080572;28;20199;-74
2020/12/21 07:01:39;;;;;;;16.65;12.75;;;6.80;99.90;;;;;;5092917;28;20215;-73
2020/12/21 07:04:09;;;;;;;14.15;10.68;;;6.90;99.90;;;;;;5092340;28;20692;-73
2020/12/21 07:06:38;;;;;;;15.40;10.57;;;6.90;99.90;;;;;;5092135;28;20226;-73
2020/12/21 07:09:06;;;;;;;16.67;12.50;;;6.90;99.90;;;;;;5091651;28;20199;-73
2020/12/21 07:11:32;;;;;;;17.15;10.40;;;6.90;99.90;;;;;;5093035;28;20200;-73
2020/12/21 07:13:59;;;;;;;20.10;11.30;;;6.90;99.90;;;;;;5092345;28;20244;-73
2020/12/21 07:16:27;;;;;;;16.63;11.75;;;6.80;99.90;;;;;;5092541;28;20562;-72
2020/12/21 07:18:55;;;;;;;25.08;14.15;;;6.80;99.90;;;;;;5091822;28;20730;-72
2020/12/21 07:21:21;;;;;;;22.38;12.30;;;6.80;99.90;;;;;;5092364;28;20200;-76
2020/12/21 07:23:57;;;;;;;18.13;11.27;;;6.80;99.90;;;;;;5094076;28;20247;-75
2020/12/21 07:26:27;;;;;;;16.25;11.65;;;6.80;99.90;;;;;;5093463;28;20311;-73
2020/12/21 07:28:53;;;;;;;18.92;11.50;;;6.80;99.90;;;;;;5075049;28;20631;-77
2020/12/21 07:31:22;;;;;;;24.50;12.00;;;6.80;99.90;;;;;;5094865;28;20203;-74
2020/12/21 07:33:51;;;;;;;17.13;9.65;;;6.80;99.90;;;;;;5095633;28;20194;-74
2020/12/21 07:36:18;;;;;;;18.35;10.70;;;6.80;99.90;;;;;;5095971;28;20226;-77
2020/12/21 07:38:46;;;;;;;19.30;12.32;;;6.90;99.90;;;;;;5095583;28;20186;-73
2020/12/21 07:41:15;;;;;;;24.38;11.23;;;6.90;99.90;;;;;;5095606;28;20205;-75
2020/12/21 07:43:45;;;;;;;21.73;10.77;;;6.90;99.90;;;;;;5095555;28;20239;-77
2020/12/21 07:46:19;;;;;;;18.30;10.18;;;6.80;99.90;;;;;;5095559;28;20234;-79
2020/12/21 07:48:48;;;;;;;12.85;10.30;;;6.90;99.90;;;;;;5095170;28;20199;-78
2020/12/21 07:51:20;;;;;;;18.00;10.23;;;6.90;99.90;;;;;;5095943;28;20223;-81
2020/12/21 07:53:47;;;;;;;19.23;8.20;;;6.90;99.90;;;;;;5095746;28;20202;-80
2020/12/21 07:56:18;;;;;;;14.85;9.77;;;6.90;99.90;;;;;;5095219;28;20220;-79
2020/12/21 07:58:45;;;;;;;26.83;11.75;;;7.00;99.90;;;;;;5083250;28;20248;-79
2020/12/21 08:01:12;;;;;;;25.08;12.98;;;7.00;99.90;;;;;;5093786;28;20210;-79
2020/12/21 08:03:41;;;;;;;16.00;8.90;;;7.10;99.90;;;;;;5095383;28;20250;-77
2020/12/21 08:06:10;;;;;;;17.75;9.38;;;7.40;99.90;;;;;;5095856;28;20225;-80
2020/12/21 08:08:38;;;;;;;14.90;8.63;;;7.40;99.90;;;;;;5095195;28;20225;-78
2020/12/21 08:11:06;;;;;;;12.77;7.85;;;7.60;99.90;;;;;;5095167;28;20222;-78
2020/12/21 08:13:35;;;;;;;12.80;8.38;;;7.70;99.90;;;;;;5095877;28;20243;-76
2020/12/21 08:16:09;;;;;;;15.18;7.72;;;7.70;99.90;;;;;;5095145;28;20244;-80
2020/12/21 08:18:36;;;;;;;16.92;7.93;;;7.80;99.90;;;;;;5094360;28;20213;-80
2020/12/21 08:21:04;;;;;;;20.73;6.65;;;7.80;99.90;;;;;;5093558;28;20208;-76
2020/12/21 08:23:32;;;;;;;13.02;6.20;;;7.80;99.90;;;;;;5094851;28;20214;-79
2020/12/21 08:25:59;;;;;;;15.10;7.30;;;7.90;99.90;;;;;;5094425;28;20222;-79
2020/12/21 08:28:36;;;;;;;9.02;6.05;;;7.80;99.90;;;;;;5089773;28;20209;-78
2020/12/21 08:31:06;;;;;;;12.60;6.68;;;7.80;99.90;;;;;;5094801;28;20228;-77
2020/12/21 08:33:33;;;;;;;9.98;5.40;;;7.70;99.90;;;;;;5094649;28;20211;-77
2020/12/21 08:36:16;;;;;;;13.07;6.13;;;7.80;99.90;;;;;;5094070;28;20257;-78
2020/12/21 08:38:43;;;;;;;10.18;5.80;;;8.00;99.90;;;;;;5089044;28;20211;-76
2020/12/21 08:41:10;;;;;;;18.48;6.53;;;7.90;99.90;;;;;;5094416;28;20197;-76
2020/12/21 08:43:38;;;;;;;6.20;4.60;;;8.00;99.90;;;;;;5093927;28;20212;-76
2020/12/21 08:46:08;;;;;;;14.45;6.13;;;8.20;99.90;;;;;;5094064;28;20252;-76
2020/12/21 08:48:39;;;;;;;12.65;4.88;;;8.30;99.90;;;;;;5093993;28;20191;-75
2020/12/21 08:51:07;;;;;;;8.73;4.30;;;8.40;99.90;;;;;;5094971;28;20236;-78
2020/12/21 08:53:33;;;;;;;15.75;5.18;;;8.60;99.90;;;;;;5094145;28;20664;-76
2020/12/21 08:56:00;;;;;;;8.18;4.93;;;8.90;99.90;;;;;;5093776;28;20235;-76
2020/12/21 08:58:26;;;;;;;16.08;5.47;;;9.10;99.90;;;;;;5082890;28;20217;-79
2020/12/21 09:00:55;;;;;;;11.68;4.82;;;9.40;99.90;;;;;;5073383;28;20210;-77
2020/12/21 09:03:22;;;;;;;11.48;4.78;;;9.60;99.90;;;;;;5073847;28;20199;-77
2020/12/21 09:05:48;;;;;;;7.03;4.45;;;10.00;99.90;;;;;;5073611;28;20242;-77
2020/12/21 09:08:15;;;;;;;10.68;5.68;;;10.20;99.90;;;;;;5073605;28;20275;-76
2020/12/21 09:10:42;;;;;;;10.38;5.18;;;10.10;99.90;;;;;;5073011;28;20222;-77
2020/12/21 09:13:08;;;;;;;11.43;5.68;;;9.90;99.90;;;;;;5073535;28;20280;-76
2020/12/21 09:15:35;;;;;;;6.28;4.15;;;9.40;99.90;;;;;;5073470;28;20317;-76
2020/12/21 09:18:03;;;;;;;9.43;4.95;;;9.10;99.90;;;;;;5073410;28;20345;-78
2020/12/21 09:20:30;;;;;;;8.05;4.25;;;9.30;99.90;;;;;;5073794;28;20686;-78
2020/12/21 09:22:57;;;;;;;10.43;4.35;;;9.60;99.90;;;;;;5073866;28;20198;-77
2020/12/21 09:25:24;;;;;;;8.30;4.30;;;9.90;99.90;;;;;;5076508;28;20226;-75
2020/12/21 09:27:50;;;;;;;5.47;3.80;;;10.30;99.90;;;;;;5082972;28;20204;-77
2020/12/21 09:30:17;;;;;;;5.78;4.03;;;10.90;99.90;;;;;;5081831;28;20258;-76
2020/12/21 09:32:43;;;;;;;8.48;4.00;;;11.50;99.90;;;;;;5074200;28;20273;-77
2020/12/21 18:09:45;;;;;;;18.67;9.30;;;8.20;99.90;;;;;;5055393;28;20205;-85
2020/12/21 18:12:12;;;;;;;14.13;10.45;;;8.20;99.90;;;;;;5081973;28;20216;-70
2020/12/21 18:14:38;;;;;;;11.70;8.80;;;8.10;99.90;;;;;;5100376;28;20266;-70
2020/12/21 18:17:05;;;;;;;15.38;9.45;;;8.20;99.90;;;;;;5108909;28;20691;-70
2020/12/21 18:19:32;;;;;;;11.73;9.40;;;8.20;99.90;;;;;;5102729;28;20193;-68
2020/12/21 18:21:58;;;;;;;16.05;8.73;;;8.20;99.90;;;;;;5110232;28;20291;-69
2020/12/21 18:24:24;;;;;;;15.52;9.82;;;8.20;99.90;;;;;;5102117;28;20198;-69
2020/12/21 18:26:53;;;;;;;14.43;11.27;;;8.10;99.90;;;;;;5103112;28;20253;-68
2020/12/21 18:29:20;;;;;;;13.40;10.02;;;8.20;99.90;;;;;;5103923;28;20228;-70
2020/12/21 18:31:48;;;;;;;12.40;9.85;;;8.20;99.90;;;;;;5104694;28;20634;-72
2020/12/21 18:34:14;;;;;;;14.13;10.95;;;8.20;99.90;;;;;;5105274;28;20204;-71
2020/12/21 18:36:41;;;;;;;13.82;11.40;;;8.10;99.90;;;;;;5117669;28;20228;-72
2020/12/21 18:39:07;;;;;;;18.33;11.25;;;8.20;99.90;;;;;;5118134;28;20209;-72
2020/12/21 18:41:34;;;;;;;18.05;10.93;;;8.20;99.90;;;;;;5118384;28;20245;-70
2020/12/21 18:44:01;;;;;;;12.43;10.95;;;8.20;99.90;;;;;;5117034;28;20209;-69
2020/12/21 18:46:28;;;;;;;16.83;12.27;;;8.30;99.90;;;;;;5105313;28;20319;-68
2020/12/21 18:48:54;;;;;;;19.40;13.45;;;8.30;99.90;;;;;;5111000;28;20479;-70
2020/12/21 18:51:21;;;;;;;15.70;11.80;;;8.30;99.90;;;;;;5106741;28;20920;-69
2020/12/21 18:53:47;;;;;;;15.35;10.18;;;8.30;99.90;;;;;;5107900;28;20229;-68
2020/12/21 18:56:14;;;;;;;14.30;10.35;;;8.20;99.90;;;;;;5113296;28;20223;-68
2020/12/21 18:58:40;;;;;;;15.93;11.77;;;8.20;99.90;;;;;;5103735;28;20720;-68
2020/12/21 19:01:09;;;;;;;15.05;9.90;;;8.20;99.90;;;;;;5103814;28;20203;-70
2020/12/21 19:03:35;;;;;;;15.98;11.30;;;8.20;99.90;;;;;;5105502;28;20245;-69
2020/12/21 19:06:02;;;;;;;13.93;12.05;;;8.20;99.90;;;;;;5104539;28;20235;-69
2020/12/21 19:08:29;;;;;;;15.13;11.18;;;8.20;99.90;;;;;;5112304;28;20304;-70
2020/12/21 19:10:55;;;;;;;16.58;12.90;;;8.10;99.90;;;;;;5113273;28;20246;-72
2020/12/21 19:13:24;;;;;;;15.80;11.60;;;8.10;99.90;;;;;;5114251;28;20277;-72
2020/12/21 19:15:51;;;;;;;20.73;14.15;;;8.10;99.90;;;;;;5114837;28;20236;-72
2020/12/21 19:18:18;;;;;;;17.17;13.63;;;8.10;99.90;;;;;;5115515;28;20204;-73
2020/12/21 19:20:45;;;;;;;22.33;16.05;;;8.10;99.90;;;;;;5117183;28;20201;-71
2020/12/21 19:23:11;;;;;;;22.38;15.15;;;8.10;99.90;;;;;;5121307;28;20229;-73
2020/12/21 19:25:38;;;;;;;16.35;12.40;;;8.10;99.90;;;;;;5110743;28;20293;-72
2020/12/21 19:28:05;;;;;;;20.13;16.42;;;8.20;99.90;;;;;;5115110;28;20205;-71
2020/12/21 19:30:31;;;;;;;19.52;16.70;;;8.20;99.90;;;;;;5112851;28;20220;-71
2020/12/21 19:32:58;;;;;;;21.50;15.38;;;8.20;99.90;;;;;;5099764;28;20278;-71
2020/12/21 19:35:25;;;;;;;24.00;16.13;;;8.20;99.90;;;;;;5098227;28;20729;-70
2020/12/21 19:37:51;;;;;;;27.33;15.98;;;8.30;99.90;;;;;;5095478;28;20201;-71
2020/12/21 19:40:18;;;;;;;20.25;15.60;;;8.20;99.90;;;;;;5097188;28;20200;-73
2020/12/21 19:42:45;;;;;;;19.08;15.65;;;8.20;99.90;;;;;;5100473;28;20202;-72
2020/12/21 19:45:11;;;;;;;19.70;15.75;;;8.20;99.90;;;;;;5096520;28;20600;-68
2020/12/21 19:47:38;;;;;;;17.67;14.93;;;8.20;99.90;;;;;;5095259;28;20205;-70
2020/12/21 19:50:05;;;;;;;17.63;14.90;;;8.20;99.90;;;;;;5097057;28;20221;-73
2020/12/21 19:52:33;;;;;;;20.67;16.60;;;8.30;99.90;;;;;;5105813;28;20201;-74
2020/12/21 19:54:59;;;;;;;25.55;17.02;;;8.30;99.90;;;;;;5105091;28;20206;-73
2020/12/21 19:57:26;;;;;;;23.70;16.83;;;8.30;99.90;;;;;;5109079;28;20205;-71
2020/12/21 19:59:52;;;;;;;19.23;15.90;;;8.30;99.90;;;;;;5123505;28;20195;-72
2020/12/21 20:02:19;;;;;;;20.85;17.38;;;8.30;99.90;;;;;;5130706;28;20204;-75
2020/12/21 20:04:45;;;;;;;17.80;15.93;;;8.30;99.90;;;;;;5131321;27;20206;-72
2020/12/21 20:07:12;;;;;;;20.38;16.00;;;8.30;99.90;;;;;;5117329;28;20224;-70
2020/12/21 20:09:39;;;;;;;22.90;19.20;;;8.30;99.90;;;;;;5115147;28;20215;-73
2020/12/21 20:12:06;;;;;;;21.23;16.30;;;8.30;99.90;;;;;;5115056;28;20245;-72
2020/12/21 20:14:33;;;;;;;19.77;16.95;;;8.20;99.90;;;;;;5115165;28;20205;-72
2020/12/21 20:16:59;;;;;;;19.85;16.70;;;8.30;99.90;;;;;;5115765;28;20239;-71
2020/12/21 20:19:26;;;;;;;20.02;13.95;;;8.30;99.90;;;;;;5115096;28;20209;-69
2020/12/21 20:21:53;;;;;;;20.17;16.70;;;8.30;99.90;;;;;;5114904;28;20207;-70
2020/12/21 20:24:21;;;;;;;19.98;17.50;;;8.30;99.90;;;;;;5105981;28;20254;-70
2020/12/21 20:26:52;;;;;;;20.65;16.70;;;8.30;99.90;;;;;;5102345;28;20223;-71
2020/12/21 20:29:19;;;;;;;19.80;17.73;;;8.30;99.90;;;;;;5108270;28;20205;-74
2020/12/21 20:31:46;;;;;;;21.33;18.05;;;8.30;99.90;;;;;;5106638;28;20261;-72
2020/12/21 20:34:12;;;;;;;19.63;15.80;;;8.30;99.90;;;;;;5093986;28;20201;-70
2020/12/21 20:36:39;;;;;;;23.02;18.67;;;8.30;99.90;;;;;;5111250;28;20239;-67
2020/12/21 20:39:06;;;;;;;23.35;16.85;;;8.40;99.90;;;;;;5114210;28;20304;-71
2020/12/21 20:41:32;;;;;;;18.38;16.20;;;8.40;99.90;;;;;;5114650;28;20203;-74
2020/12/21 20:44:02;;;;;;;19.10;16.63;;;8.30;99.90;;;;;;5114902;28;20580;-72
2020/12/21 20:46:28;;;;;;;19.70;17.35;;;8.30;99.90;;;;;;5114295;28;20233;-71
2020/12/21 20:48:55;;;;;;;21.02;17.75;;;8.40;99.90;;;;;;5113708;28;20588;-70
2020/12/21 20:51:21;;;;;;;18.90;16.92;;;8.40;99.90;;;;;;5114079;28;20224;-66
2020/12/21 20:53:48;;;;;;;19.88;16.98;;;8.40;99.90;;;;;;5114195;28;20588;-72
2020/12/21 20:56:14;;;;;;;21.55;17.80;;;8.40;99.90;;;;;;5114321;28;20224;-67
2020/12/21 20:58:41;;;;;;;21.00;17.35;;;8.50;99.90;;;;;;5113276;28;20204;-71
2020/12/21 21:01:08;;;;;;;21.52;17.45;;;8.50;99.90;;;;;;5105811;28;20202;-70
2020/12/21 21:03:35;;;;;;;22.30;17.90;;;8.50;99.90;;;;;;5114168;28;20201;-74
2020/12/21 21:06:02;;;;;;;19.60;17.67;;;8.50;99.90;;;;;;5113956;28;20715;-72
2020/12/21 21:08:28;;;;;;;19.35;17.35;;;8.50;99.90;;;;;;5114353;28;20204;-75
2020/12/21 21:10:57;;;;;;;17.15;15.35;;;8.50;99.90;;;;;;5116306;28;20219;-75
2020/12/21 21:13:24;;;;;;;15.98;14.40;;;8.60;99.90;;;;;;5113889;28;20231;-71
2020/12/21 21:15:52;;;;;;;18.42;16.30;;;8.60;99.90;;;;;;5113575;28;20224;-71
2020/12/21 21:18:20;;;;;;;19.38;16.90;;;8.50;99.90;;;;;;5114627;28;20270;-73
2020/12/21 21:20:47;;;;;;;19.35;16.30;;;8.60;99.90;;;;;;5113989;28;20197;-75